createdAt,value
2022-10-07T00:00:47.441Z,98916.88
2022-10-07T00:03:14.484Z,98927.22
2022-10-07T00:05:41.266Z,98915.03
2022-10-07T00:08:08.255Z,98911.69
2022-10-07T00:10:42.389Z,98908.56
2022-10-07T00:13:12.277Z,98906.88
2022-10-07T00:15:39.115Z,98896.53
2022-10-07T00:18:05.803Z,98898.78
2022-10-07T00:20:37.721Z,98905.69
2022-10-07T00:23:04.251Z,98893.13
2022-10-07T00:25:31.144Z,98886.22
2022-10-07T00:27:58.261Z,98874.25
2022-10-07T00:30:24.759Z,98870.06
2022-10-07T00:32:51.289Z,98863.59
2022-10-07T00:35:17.761Z,98856.78
2022-10-07T00:37:44.373Z,98867.28
2022-10-07T00:40:12.834Z,98852.47
2022-10-07T00:42:40.519Z,98847.44
2022-10-07T00:45:19.335Z,98843.88
2022-10-07T00:47:48.643Z,98834.25
2022-10-07T00:50:24.027Z,98818.81
2022-10-07T00:52:55.319Z,98825.03
2022-10-07T00:55:24.756Z,98817.25
2022-10-07T00:57:55.161Z,98804.03
2022-10-07T01:00:24.051Z,98804.69
2022-10-07T01:02:51.844Z,98798.44
2022-10-07T01:05:19.528Z,98792.56
2022-10-07T01:07:48.195Z,98793.31
2022-10-07T01:10:18.810Z,98783.94
2022-10-07T01:13:10.160Z,98777.84
2022-10-07T01:15:48.574Z,98766.78
2022-10-07T01:18:38.575Z,98763.72
2022-10-07T01:21:13.487Z,98767.69
2022-10-07T01:23:51.673Z,98752.25
2022-10-07T01:26:48.623Z,98750.34
2022-10-07T01:29:41.061Z,98734.19
2022-10-07T01:32:22.627Z,98731.97
2022-10-07T01:34:53.095Z,98737.66
2022-10-07T01:37:23.917Z,98738.63
2022-10-07T01:39:56.406Z,98738.75
2022-10-07T01:42:23.230Z,98732.47
2022-10-07T01:44:53.151Z,98737.22
2022-10-07T01:47:19.838Z,98737.34
2022-10-07T01:49:46.240Z,98731.97
2022-10-07T01:52:33.865Z,98724.69
2022-10-07T01:55:12.654Z,98706.03
2022-10-07T01:57:58.413Z,98706.47
2022-10-07T02:00:25.235Z,98705.91
2022-10-07T02:02:51.625Z,98713.78
2022-10-07T02:05:36.833Z,98712.28
2022-10-07T02:08:17.746Z,98707.03
2022-10-07T02:10:56.270Z,98714.13
2022-10-07T02:14:01.857Z,98705.69
2022-10-07T02:16:35.217Z,98712.41
2022-10-07T02:19:13.792Z,98716.84
2022-10-07T02:21:43.063Z,98708.47
2022-10-07T02:24:12.122Z,98704.19
2022-10-07T02:26:41.382Z,98707.00
2022-10-07T02:29:11.003Z,98699.91
2022-10-07T02:31:41.416Z,98700.13
2022-10-07T02:34:14.147Z,98684.63
2022-10-07T02:36:53.475Z,98692.19
2022-10-07T02:39:20.260Z,98689.88
2022-10-07T02:41:52.799Z,98687.78
2022-10-07T02:44:33.208Z,98677.09
2022-10-07T02:47:09.590Z,98676.88
2022-10-07T02:49:40.272Z,98672.41
2022-10-07T02:52:11.829Z,98669.06
2022-10-07T02:54:47.447Z,98655.00
2022-10-07T02:57:18.474Z,98642.53
2022-10-07T02:59:47.193Z,98639.81
2022-10-07T03:02:20.039Z,98636.44
2022-10-07T03:04:46.687Z,98631.28
2022-10-07T03:07:13.854Z,98638.91
2022-10-07T03:09:42.256Z,98639.44
2022-10-07T03:12:09.103Z,98631.56
2022-10-07T03:14:35.924Z,98638.19
2022-10-07T03:17:02.717Z,98644.28
2022-10-07T03:19:29.218Z,98624.28
2022-10-07T03:21:56.830Z,98633.91
2022-10-07T03:24:23.255Z,98649.66
2022-10-07T03:26:50.355Z,98635.88
2022-10-07T03:29:17.289Z,98631.75
2022-10-07T03:31:43.742Z,98632.34
2022-10-07T03:34:10.934Z,98628.13
2022-10-07T03:36:38.367Z,98628.28
2022-10-07T03:39:04.809Z,98621.16
2022-10-07T03:41:31.249Z,98617.59
2022-10-07T03:43:59.202Z,98621.34
2022-10-07T03:46:25.841Z,98626.59
2022-10-07T03:48:52.404Z,98647.19
2022-10-07T03:51:18.832Z,98641.41
2022-10-07T03:53:45.366Z,98639.66
2022-10-07T03:56:11.842Z,98640.72
2022-10-07T03:58:39.302Z,98644.91
2022-10-07T04:01:10.226Z,98636.19
2022-10-07T04:03:37.014Z,98636.72
2022-10-07T04:06:03.845Z,98629.47
2022-10-07T04:08:32.782Z,98620.25
2022-10-07T04:11:00.426Z,98616.78
2022-10-07T04:13:27.407Z,98612.63
2022-10-07T04:15:54.752Z,98612.16
2022-10-07T04:18:21.871Z,98616.00
2022-10-07T04:20:48.244Z,98598.19
2022-10-07T04:23:15.863Z,98583.91
2022-10-07T04:25:46.927Z,98578.03
2022-10-07T04:28:17.421Z,98588.56
2022-10-07T04:30:44.872Z,98566.78
2022-10-07T04:33:12.395Z,98563.03
2022-10-07T04:35:40.179Z,98562.25
2022-10-07T04:38:11.189Z,98561.81
2022-10-07T04:40:42.241Z,98568.84
2022-10-07T04:43:19.527Z,98579.31
2022-10-07T04:45:52.009Z,98574.75
2022-10-07T04:48:20.111Z,98546.28
2022-10-07T04:50:47.241Z,98537.75
2022-10-07T04:53:15.586Z,98542.53
2022-10-07T04:55:47.901Z,98547.66
2022-10-07T04:58:16.125Z,98533.03
2022-10-07T05:00:44.562Z,98522.28
2022-10-07T05:03:12.942Z,98522.34
2022-10-07T05:05:44.023Z,98530.97
2022-10-07T05:08:12.444Z,98516.03
2022-10-07T05:10:39.813Z,98504.94
2022-10-07T05:13:09.405Z,98507.22
2022-10-07T05:15:35.767Z,98507.22
2022-10-07T05:18:02.742Z,98501.09
2022-10-07T05:20:29.186Z,98490.41
2022-10-07T05:22:56.154Z,98491.50
2022-10-07T05:25:22.726Z,98485.44
2022-10-07T05:27:55.496Z,98494.13
2022-10-07T05:30:21.965Z,98494.41
2022-10-07T05:32:48.476Z,98475.25
2022-10-07T05:35:15.207Z,98485.41
2022-10-07T05:37:41.620Z,98472.13
2022-10-07T05:40:08.481Z,98470.16
2022-10-07T05:42:34.919Z,98457.97
2022-10-07T05:45:05.128Z,98445.47
2022-10-07T05:47:33.325Z,98439.03
2022-10-07T05:50:00.194Z,98434.63
2022-10-07T05:52:26.955Z,98425.03
2022-10-07T05:54:53.404Z,98415.28
2022-10-07T05:57:19.869Z,98411.53
2022-10-07T05:59:46.254Z,98403.41
2022-10-07T06:02:15.708Z,98369.34
2022-10-07T06:04:43.336Z,98387.09
2022-10-07T06:07:10.526Z,98354.84
2022-10-07T06:09:55.541Z,98346.59
2022-10-07T06:12:40.932Z,98316.97
2022-10-07T06:15:09.633Z,98313.28
2022-10-07T06:17:40.636Z,98318.97
2022-10-07T06:20:07.631Z,98309.97
2022-10-07T06:22:34.098Z,98315.44
2022-10-07T06:25:02.140Z,98307.91
2022-10-07T06:27:29.440Z,98316.84
2022-10-07T06:29:55.925Z,98306.84
2022-10-07T06:32:22.458Z,98300.75
2022-10-07T06:34:48.901Z,98305.16
2022-10-07T06:37:15.295Z,98328.16
2022-10-07T06:39:41.740Z,98316.38
2022-10-07T06:42:08.094Z,98313.53
2022-10-07T06:44:35.000Z,98319.72
2022-10-07T06:47:01.455Z,98341.38
2022-10-07T06:49:27.889Z,98324.44
2022-10-07T06:51:54.298Z,98323.25
2022-10-07T06:54:20.646Z,98324.66
2022-10-07T06:56:47.029Z,98331.22
2022-10-07T06:59:13.429Z,98338.97
2022-10-07T07:01:39.868Z,98341.31
2022-10-07T07:04:06.296Z,98337.38
2022-10-07T07:06:36.849Z,98362.56
2022-10-07T07:09:05.320Z,98355.97
2022-10-07T07:11:40.466Z,98372.59
2022-10-07T07:14:08.668Z,98371.16
2022-10-07T07:16:35.691Z,98346.13
2022-10-07T07:19:08.694Z,98345.63
2022-10-07T07:21:38.083Z,98357.31
2022-10-07T07:24:05.104Z,98353.81
2022-10-07T07:26:31.610Z,98361.03
2022-10-07T07:29:04.205Z,98336.59
2022-10-07T07:31:33.531Z,98342.41
2022-10-07T07:34:02.397Z,98325.19
2022-10-07T07:36:31.423Z,98310.03
2022-10-07T07:39:00.293Z,98305.50
2022-10-07T07:41:29.939Z,98283.34
2022-10-07T07:43:59.254Z,98272.56
2022-10-07T07:46:29.418Z,98293.81
2022-10-07T07:48:56.159Z,98299.50
2022-10-07T07:51:22.784Z,98323.47
2022-10-07T07:53:50.064Z,98307.13
2022-10-07T07:56:17.069Z,98284.06
2022-10-07T07:58:43.464Z,98224.81
2022-10-07T08:01:13.570Z,98180.63
2022-10-07T08:03:43.175Z,98186.41
2022-10-07T08:06:12.050Z,98161.03
2022-10-07T08:08:38.867Z,98475.03
2022-10-07T08:11:14.206Z,98724.38
2022-10-07T08:13:41.818Z,98869.81
2022-10-07T08:16:09.926Z,99076.41
2022-10-07T08:18:38.979Z,99254.91
2022-10-07T08:21:07.718Z,99397.41
2022-10-07T08:23:35.666Z,99386.50
2022-10-07T08:26:04.075Z,99475.22
2022-10-07T08:28:31.308Z,99492.72
2022-10-07T08:31:05.698Z,99570.66
2022-10-07T08:33:36.021Z,99537.84
2022-10-07T08:36:04.711Z,99556.00
2022-10-07T08:38:32.760Z,99627.44
2022-10-07T08:41:16.859Z,99697.78
2022-10-07T08:43:50.806Z,99754.41
2022-10-07T08:46:31.813Z,99790.16
2022-10-07T08:49:17.932Z,99783.31
2022-10-07T08:51:53.972Z,99802.56
2022-10-07T08:54:27.631Z,99806.78
2022-10-07T08:56:57.586Z,99834.63
2022-10-07T08:59:35.273Z,99861.75
2022-10-07T09:02:36.519Z,99841.00
2022-10-07T09:05:22.356Z,99826.63
2022-10-07T09:07:53.806Z,99822.34
2022-10-07T09:10:25.868Z,99861.13
2022-10-07T09:13:11.578Z,99834.75
2022-10-07T09:15:59.752Z,99847.31
2022-10-07T09:18:39.292Z,99878.41
2022-10-07T09:21:12.495Z,99872.25
2022-10-07T09:23:39.187Z,99906.19
2022-10-07T09:26:13.663Z,99897.97
2022-10-07T09:28:40.657Z,99891.06
2022-10-07T09:31:07.833Z,99876.44
2022-10-07T09:33:42.904Z,99892.81
2022-10-07T09:36:12.486Z,99887.50
2022-10-07T09:38:41.872Z,99871.41
2022-10-07T09:41:32.271Z,99888.53
2022-10-07T09:44:06.494Z,99875.47
2022-10-07T09:46:47.307Z,99872.25
2022-10-07T09:49:29.916Z,99880.84
2022-10-07T09:52:17.703Z,99876.28
2022-10-07T09:54:47.044Z,99869.09
2022-10-07T09:57:22.596Z,99874.78
2022-10-07T09:59:49.000Z,99866.44
2022-10-07T10:02:15.451Z,99867.09
2022-10-07T10:04:51.076Z,99869.63
2022-10-07T10:07:28.674Z,99868.66
2022-10-07T10:09:57.590Z,99863.22
2022-10-07T10:12:25.216Z,99857.16
2022-10-07T10:14:53.742Z,99862.75
2022-10-07T10:17:29.431Z,99866.16
2022-10-07T10:20:16.734Z,99860.88
2022-10-07T10:22:43.709Z,99843.97
2022-10-07T10:25:29.746Z,99845.13
2022-10-07T10:28:19.622Z,99833.44
2022-10-07T10:30:56.356Z,99836.41
2022-10-07T10:33:41.038Z,99836.81
2022-10-07T10:36:23.455Z,99820.53
2022-10-07T10:39:01.477Z,99798.84
2022-10-07T10:41:48.534Z,99812.19
2022-10-07T10:44:34.046Z,99814.78
2022-10-07T10:47:07.159Z,99809.38
2022-10-07T10:49:47.942Z,99808.94
2022-10-07T10:52:45.326Z,99808.56
2022-10-07T10:55:24.960Z,99797.78
2022-10-07T10:58:06.673Z,99799.25
2022-10-07T11:00:44.856Z,99791.38
2022-10-07T11:04:04.520Z,99777.16
2022-10-07T11:06:35.780Z,99779.22
2022-10-07T11:09:03.100Z,99775.03
2022-10-07T11:11:29.712Z,99766.31
2022-10-07T11:14:05.016Z,99760.34
2022-10-07T11:16:38.450Z,99763.22
2022-10-07T11:19:13.107Z,99751.13
2022-10-07T11:21:49.952Z,99746.69
2022-10-07T11:24:23.893Z,99738.78
2022-10-07T11:27:10.176Z,99732.66
2022-10-07T11:29:48.452Z,99733.69
2022-10-07T11:32:28.752Z,99731.31
2022-10-07T11:35:04.331Z,99726.44
2022-10-07T11:37:42.913Z,99721.59
2022-10-07T11:40:09.989Z,99711.50
2022-10-07T11:42:51.625Z,99713.47
2022-10-07T11:45:26.341Z,99713.09
2022-10-07T11:48:02.449Z,99699.78
2022-10-07T11:50:37.777Z,99688.19
2022-10-07T11:53:26.377Z,99683.94
2022-10-07T11:56:15.902Z,99687.34
2022-10-07T11:58:44.225Z,99679.38
2022-10-07T12:01:25.888Z,99669.69
2022-10-07T12:03:54.171Z,99676.00
2022-10-07T12:06:20.592Z,99661.69
2022-10-07T12:08:46.988Z,99660.63
2022-10-07T12:11:13.615Z,99654.03
2022-10-07T12:13:51.479Z,99645.28
2022-10-07T12:16:23.729Z,99644.59
2022-10-07T12:19:09.805Z,99627.66
2022-10-07T12:22:04.118Z,99626.66
2022-10-07T12:24:36.018Z,99622.84
2022-10-07T12:27:16.322Z,99618.06
2022-10-07T12:29:50.793Z,99607.56
2022-10-07T12:32:40.080Z,99606.66
2022-10-07T12:35:34.876Z,99598.31
2022-10-07T12:38:10.569Z,99597.72
2022-10-07T12:40:38.329Z,99598.81
2022-10-07T12:43:34.493Z,99599.53
2022-10-07T12:46:05.607Z,99582.38
2022-10-07T12:48:41.128Z,99587.22
2022-10-07T12:51:19.332Z,99566.47
2022-10-07T12:53:48.258Z,99575.84
2022-10-07T12:56:22.395Z,99579.53
2022-10-07T12:59:40.330Z,99566.81
2022-10-07T13:02:20.468Z,99555.88
2022-10-07T13:04:57.946Z,99550.56
2022-10-07T13:07:40.370Z,99552.50
2022-10-07T13:10:18.431Z,99545.75
2022-10-07T13:12:54.086Z,99548.41
2022-10-07T13:15:48.337Z,99538.38
2022-10-07T13:18:24.253Z,99528.41
2022-10-07T13:21:11.620Z,99530.31
2022-10-07T13:23:38.163Z,99519.50
2022-10-07T13:26:04.736Z,99526.13
2022-10-07T13:28:37.881Z,99501.09
2022-10-07T13:31:28.705Z,99511.84
2022-10-07T13:33:59.122Z,99499.53
2022-10-07T13:36:27.556Z,99494.97
2022-10-07T13:39:11.149Z,99492.63
2022-10-07T13:41:42.691Z,99482.38
2022-10-07T13:44:13.934Z,99480.69
2022-10-07T13:46:42.120Z,99469.41
2022-10-07T13:49:22.075Z,99464.59
2022-10-07T13:51:51.794Z,99465.81
2022-10-07T13:54:26.178Z,99454.63
2022-10-07T13:56:53.247Z,99457.34
2022-10-07T13:59:20.529Z,99448.88
2022-10-07T14:01:50.597Z,99420.69
2022-10-07T14:04:24.936Z,99448.47
2022-10-07T14:06:55.980Z,99435.84
2022-10-07T14:09:31.498Z,99444.97
2022-10-07T14:12:03.049Z,99443.78
2022-10-07T14:14:38.749Z,99435.09
2022-10-07T14:17:19.429Z,99408.88
2022-10-07T14:19:52.439Z,99434.63
2022-10-07T14:22:29.224Z,99427.03
2022-10-07T14:25:00.433Z,99424.34
2022-10-07T14:27:59.126Z,99421.31
2022-10-07T14:30:56.448Z,99414.28
2022-10-07T14:33:47.323Z,99405.00
2022-10-07T14:36:19.885Z,99404.41
2022-10-07T14:38:50.734Z,99399.00
2022-10-07T14:41:20.362Z,99390.50
2022-10-07T14:43:48.471Z,99388.69
2022-10-07T14:46:22.020Z,99393.28
2022-10-07T14:48:49.539Z,99398.31
2022-10-07T14:51:19.016Z,99383.25
2022-10-07T14:53:49.879Z,99390.34
2022-10-07T14:56:24.159Z,99377.16
2022-10-07T14:58:50.610Z,99377.09
2022-10-07T15:01:16.976Z,99369.53
2022-10-07T15:03:43.412Z,99370.03
2022-10-07T15:06:09.847Z,99364.25
2022-10-07T15:08:36.263Z,99355.13
2022-10-07T15:11:05.370Z,99365.28
2022-10-07T15:13:32.682Z,99359.22
2022-10-07T15:15:59.238Z,99353.47
2022-10-07T15:18:25.612Z,99352.66
2022-10-07T15:20:56.634Z,99347.66
2022-10-07T15:23:23.911Z,99354.69
2022-10-07T15:25:51.589Z,99351.19
2022-10-07T15:28:18.325Z,99338.78
2022-10-07T15:30:44.884Z,99338.22
2022-10-07T15:33:12.488Z,99327.50
2022-10-07T15:35:38.842Z,99328.78
2022-10-07T15:38:05.393Z,99325.94
2022-10-07T15:40:32.339Z,99326.94
2022-10-07T15:42:59.324Z,99328.16
2022-10-07T15:45:26.786Z,99309.56
2022-10-07T15:47:56.875Z,99322.97
2022-10-07T15:50:24.946Z,99313.41
2022-10-07T15:52:51.339Z,99312.94
2022-10-07T15:55:17.797Z,99323.84
2022-10-07T15:57:44.248Z,99320.56
2022-10-07T16:00:11.407Z,99312.72
2022-10-07T16:02:37.904Z,99305.47
2022-10-07T16:05:04.884Z,99293.41
2022-10-07T16:07:31.686Z,99285.50
2022-10-07T16:09:58.150Z,99279.59
2022-10-07T16:12:24.546Z,99271.56
2022-10-07T16:14:51.959Z,99269.31
2022-10-07T16:17:18.889Z,99266.72
2022-10-07T16:19:45.333Z,99241.41
2022-10-07T16:22:11.790Z,99233.09
2022-10-07T16:24:39.657Z,99213.78
2022-10-07T16:27:06.678Z,99216.91
2022-10-07T16:29:51.612Z,99212.13
2022-10-07T16:32:18.044Z,99215.56
2022-10-07T16:34:45.260Z,99205.31
2022-10-07T16:37:12.427Z,99196.44
2022-10-07T16:39:38.823Z,99193.59
2022-10-07T16:42:05.299Z,99193.81
2022-10-07T16:44:31.706Z,99186.56
2022-10-07T16:46:59.195Z,99183.59
2022-10-07T16:49:27.434Z,99171.09
2022-10-07T16:51:54.360Z,99169.66
2022-10-07T16:54:21.941Z,99163.38
2022-10-07T16:56:50.985Z,99161.88
2022-10-07T16:59:22.664Z,99159.91
2022-10-07T17:01:51.662Z,99153.91
2022-10-07T17:04:18.295Z,99138.91
2022-10-07T17:06:46.287Z,99149.25
2022-10-07T17:09:13.815Z,99148.63
2022-10-07T17:11:40.840Z,99134.97
2022-10-07T17:14:15.384Z,99133.00
2022-10-07T17:16:47.767Z,99124.38
2022-10-07T17:19:17.767Z,99113.34
2022-10-07T17:21:47.618Z,99105.00
2022-10-07T17:24:15.636Z,99107.00
2022-10-07T17:26:42.723Z,99103.69
2022-10-07T17:29:12.154Z,99095.38
2022-10-07T17:31:42.583Z,99105.69
2022-10-07T17:34:11.299Z,99087.72
2022-10-07T17:36:38.046Z,99093.41
2022-10-07T17:39:04.521Z,99074.63
2022-10-07T17:41:33.699Z,99073.09
2022-10-07T17:44:02.189Z,99066.47
2022-10-07T17:46:31.396Z,99074.13
2022-10-07T17:48:59.154Z,99054.47
2022-10-07T17:51:29.132Z,99060.16
2022-10-07T17:53:57.667Z,99047.13
2022-10-07T17:56:24.086Z,99038.50
2022-10-07T17:58:50.884Z,99046.16
2022-10-07T18:01:22.642Z,99039.19
2022-10-07T18:03:53.949Z,99029.84
2022-10-07T18:06:20.886Z,99023.16
2022-10-07T18:08:48.028Z,99012.50
2022-10-07T18:11:18.010Z,99012.16
2022-10-07T18:14:05.244Z,99010.81
2022-10-07T18:16:33.867Z,98997.16
2022-10-07T18:19:00.776Z,98996.81
2022-10-07T18:21:33.107Z,98987.50
2022-10-07T18:23:59.713Z,98988.84
2022-10-07T18:26:26.154Z,98983.88
2022-10-07T18:28:52.576Z,98975.53
2022-10-07T18:31:19.732Z,98956.25
2022-10-07T18:33:46.398Z,98958.56
2022-10-07T18:36:18.900Z,98949.41
2022-10-07T18:38:46.049Z,98940.59
2022-10-07T18:41:17.555Z,98921.63
2022-10-07T18:43:45.491Z,98925.94
2022-10-07T18:46:14.927Z,98915.94
2022-10-07T18:48:43.194Z,98900.47
2022-10-07T18:51:11.617Z,98894.31
2022-10-07T18:53:40.565Z,98885.81
2022-10-07T18:56:12.181Z,98877.34
2022-10-07T18:58:41.433Z,98873.22
2022-10-07T19:01:09.560Z,98871.03
2022-10-07T19:03:36.104Z,98864.56
2022-10-07T19:06:07.914Z,98848.03
2022-10-07T19:08:34.719Z,98853.53
2022-10-07T19:11:11.929Z,98842.75
2022-10-07T19:13:47.914Z,98834.78
2022-10-07T19:16:20.496Z,98818.94
2022-10-07T19:18:48.896Z,98832.25
2022-10-07T19:21:18.097Z,98800.19
2022-10-07T19:23:44.872Z,98795.53
2022-10-07T19:26:12.727Z,98786.19
2022-10-07T19:28:40.124Z,98761.38
2022-10-07T19:31:16.168Z,98755.28
2022-10-07T19:33:43.940Z,98740.53
2022-10-07T19:36:12.753Z,98756.84
2022-10-07T19:38:44.375Z,98759.91
2022-10-07T19:41:13.137Z,98749.31
2022-10-07T19:43:40.654Z,98740.03
2022-10-07T19:46:08.317Z,98713.44
2022-10-07T19:48:35.993Z,98707.75
2022-10-07T19:51:05.332Z,98709.34
2022-10-07T19:53:36.111Z,98734.59
2022-10-07T19:56:23.931Z,98728.66
2022-10-07T19:59:07.867Z,98706.78
2022-10-07T20:01:36.207Z,98696.81
2022-10-07T20:04:09.638Z,98675.16
2022-10-07T20:06:39.320Z,98679.50
2022-10-07T20:09:08.614Z,98659.47
2022-10-07T20:11:35.066Z,98674.81
2022-10-07T20:14:04.258Z,98661.84
2022-10-07T20:16:31.378Z,98643.88
2022-10-07T20:19:06.926Z,98628.72
2022-10-07T20:21:35.869Z,98636.91
2022-10-07T20:24:02.803Z,98637.28
2022-10-07T20:26:32.744Z,98649.06
2022-10-07T20:29:00.858Z,98637.72
2022-10-07T20:31:34.563Z,98643.09
2022-10-07T20:34:01.731Z,98635.25
2022-10-07T20:36:33.303Z,98638.34
2022-10-07T20:39:25.539Z,98632.38
2022-10-07T20:42:11.998Z,98602.91
2022-10-07T20:44:38.826Z,98567.38
2022-10-07T20:47:07.746Z,98571.41
2022-10-07T20:49:35.128Z,98559.88
2022-10-07T20:52:10.434Z,98543.81
2022-10-07T20:54:36.893Z,98535.19
2022-10-07T20:57:04.206Z,98525.91
2022-10-07T20:59:31.222Z,98488.84
2022-10-07T21:01:58.446Z,98476.41
2022-10-07T21:04:27.075Z,98455.34
2022-10-07T21:06:54.433Z,98422.13
2022-10-07T21:09:20.811Z,98390.84
2022-10-07T21:11:48.236Z,98362.19
2022-10-07T21:14:17.189Z,98348.31
2022-10-07T21:16:44.618Z,98345.50
2022-10-07T21:19:11.030Z,98314.19
2022-10-07T21:21:37.527Z,98294.91
2022-10-07T21:24:04.327Z,98283.94
2022-10-07T21:26:30.744Z,98281.13
2022-10-07T21:28:57.150Z,98272.00
2022-10-07T21:31:23.613Z,98274.00
2022-10-07T21:33:51.505Z,98252.09
2022-10-07T21:36:21.231Z,98229.00
2022-10-07T21:38:53.597Z,98240.06
2022-10-07T21:41:22.917Z,98232.16
2022-10-07T21:43:51.502Z,98226.47
2022-10-07T21:46:18.740Z,98212.72
2022-10-07T21:48:45.330Z,98189.63
2022-10-07T21:51:11.772Z,98181.31
2022-10-07T21:53:38.401Z,98165.72
2022-10-07T21:56:06.591Z,98154.72
2022-10-07T21:58:35.285Z,98135.38
2022-10-07T22:01:03.493Z,98103.69
2022-10-07T22:03:30.422Z,98052.44
2022-10-07T22:06:05.042Z,98080.97
2022-10-07T22:08:37.551Z,98097.28
2022-10-07T22:11:14.340Z,98094.34
2022-10-07T22:13:45.852Z,98093.50
2022-10-07T22:16:15.011Z,98110.31
2022-10-07T22:18:43.991Z,98090.75
2022-10-07T22:21:14.071Z,98105.34
2022-10-07T22:23:41.379Z,98090.56
2022-10-07T22:26:12.398Z,98097.00
2022-10-07T22:28:39.973Z,98100.03
2022-10-07T22:31:09.142Z,98103.06
2022-10-07T22:33:37.400Z,98075.03
2022-10-07T22:36:05.133Z,98082.88
2022-10-07T22:38:31.635Z,98082.41
2022-10-07T22:41:05.796Z,98054.72
2022-10-07T22:43:36.466Z,98047.13
2022-10-07T22:46:03.889Z,98045.38
2022-10-07T22:48:31.354Z,98053.94
2022-10-07T22:51:06.217Z,98037.97
2022-10-07T22:53:34.868Z,98036.03
2022-10-07T22:56:06.372Z,97972.69
2022-10-07T22:58:34.079Z,97953.81
2022-10-07T23:01:04.612Z,97931.63
2022-10-07T23:03:31.043Z,97919.00
2022-10-07T23:06:00.877Z,97902.34
2022-10-07T23:08:28.686Z,97869.69
2022-10-07T23:10:56.868Z,97828.84
2022-10-07T23:13:24.960Z,97800.84
2022-10-07T23:15:59.754Z,97785.94
2022-10-07T23:18:27.601Z,97768.06
2022-10-07T23:21:01.813Z,97740.25
2022-10-07T23:23:29.428Z,97724.19
2022-10-07T23:25:56.304Z,97717.47
2022-10-07T23:28:25.751Z,97712.53
2022-10-07T23:30:53.046Z,97680.53
2022-10-07T23:33:20.188Z,97675.59
2022-10-07T23:35:46.608Z,97657.91
2022-10-07T23:38:12.982Z,97649.44
2022-10-07T23:40:40.700Z,97655.13
2022-10-07T23:43:07.144Z,97655.84
2022-10-07T23:45:33.547Z,97654.97
2022-10-07T23:48:00.187Z,97634.38
2022-10-07T23:50:27.653Z,97607.84
2022-10-07T23:52:54.203Z,97582.63
2022-10-07T23:55:20.624Z,97566.81
2022-10-07T23:57:47.056Z,97558.94
